NCAR-RAP Real-Time Weather Data

Output produced by METARs form (23 January 2018  15:37 UTC)
found at http://weather.rap.ucar.edu/surface/
 
RJCN 230900Z 05006KT 2000 -SHSN FEW003 BKN007 BKN010 M02/M03 Q0998
RJCN 230800Z 07014KT 2300 -SHSN FEW004 BKN007 BKN010 M02/M03 Q0998
RJCN 230700Z 05008KT 010V080 2500 -SHSN FEW005 BKN008 BKN012 M02/M03 Q0999
RJCN 230600Z 06017KT 2500 R08/2000N -SHSN FEW005 SCT008 BKN012 M02/M04 Q0999
RJCN 230500Z 06017KT 2400 R08/2000N -SHSN FEW005 BKN008 BKN012 M02/M04 Q1000
RJCN 230400Z 06012KT 2000 R08/2000N -SHSN FEW005 BKN008 BKN012 M02/M04 Q1001
RJCN 230311Z 07016KT 2300 R08/1500VP2000D -SHSN FEW005 BKN008 BKN012 M02/M04 Q1002 RMK 1ST005 5ST008 7ST012 A2961
RJCN 230300Z 07016KT 3100 R08/1000VP2000D -SHSN FEW005 BKN008 BKN012 M02/M04 Q1003
RJCN 230200Z 07016KT 4500 -SHSN FEW005 SCT008 BKN012 M02/M04 Q1004
RJCN 230100Z 05008KT 010V070 3500 R08/0900VP2000U -SHSN FEW005 BKN008 BKN012 M03/M04 Q1006
RJCN 230042Z 02007KT 5000 -SHSN FEW008 SCT015 BKN020 M03/M06 Q1007 RMK 1ST008 4ST015 7CU020 A2974
RJCN 230000Z 03008KT 4900 -SHSN FEW008 SCT015 BKN020 M03/M07 Q1007
RJCN 220900Z 22005KT 9999 FEW030 M08/M17 Q1017
RJCN 220800Z 20005KT 9999 FEW030 M07/M17 Q1017
RJCN 220700Z 20004KT 9999 FEW030 SCT/// M05/M17 Q1017
RJCN 220600Z 22009KT 9999 FEW030 SCT/// M04/M17 Q1017
RJCN 220500Z 24009KT 9999 FEW030 M05/M16 Q1016
RJCN 220400Z 24012KT 9999 FEW030 M05/M16 Q1017
RJCN 220300Z 23008KT 9999 FEW030 M06/M15 Q1017
RJCN 220200Z 25009KT 9999 FEW030 M07/M15 Q1018
RJCN 220100Z 24006KT 9999 FEW030 M09/M16 Q1018
RJCN 220000Z 26006KT 9999 FEW025 SCT050 M11/M18 Q1019
RJCN 210900Z 24010KT 9999 FEW025 M06/M16 Q1008
RJCN 210800Z 25010KT 9999 FEW025 SCT050 M06/M17 Q1008
RJCN 210700Z 23013KT 9999 FEW025 M04/M16 Q1007
RJCN 210600Z 24012KT 9999 FEW030 M03/M15 Q1006
RJCN 210500Z 23015KT 9999 FEW030 SCT050 M02/M14 Q1006
RJCN 210400Z 22014KT 9999 FEW030 M02/M14 Q1006